createdAt,value
2023-01-18T00:01:37.573Z,97242.97
2023-01-18T00:04:05.812Z,97278.56
2023-01-18T00:06:33.757Z,97268.53
2023-01-18T00:09:01.873Z,97222.47
2023-01-18T00:11:30.280Z,97242.94
2023-01-18T00:13:58.426Z,97216.00
2023-01-18T00:16:26.573Z,97206.81
2023-01-18T00:18:57.441Z,97271.28
2023-01-18T00:21:27.845Z,97250.19
2023-01-18T00:23:59.097Z,97233.56
2023-01-18T00:26:27.465Z,97248.63
2023-01-18T00:28:57.389Z,97230.50
2023-01-18T00:31:26.270Z,97199.22
2023-01-18T00:33:55.003Z,97235.66
2023-01-18T00:36:23.050Z,97221.88
2023-01-18T00:38:52.460Z,97234.41
2023-01-18T00:41:22.003Z,97234.00
2023-01-18T00:43:50.855Z,97224.28
2023-01-18T00:46:30.518Z,97188.38
2023-01-18T00:48:59.118Z,97218.03
2023-01-18T00:51:27.346Z,97190.38
2023-01-18T00:53:55.487Z,97226.19
2023-01-18T00:56:23.788Z,97172.84
2023-01-18T00:58:52.064Z,97216.09
2023-01-18T01:01:20.521Z,97215.69
2023-01-18T01:04:07.355Z,97174.53
2023-01-18T01:06:45.747Z,97202.25
2023-01-18T01:09:30.062Z,97184.94
2023-01-18T01:12:18.541Z,97181.41
2023-01-18T01:15:07.120Z,97164.91
2023-01-18T01:17:56.895Z,97161.91
2023-01-18T01:20:44.896Z,97116.16
2023-01-18T01:23:37.121Z,97177.22
2023-01-18T01:26:13.435Z,97182.56
2023-01-18T01:28:51.653Z,97136.97
2023-01-18T01:31:20.909Z,97120.06
2023-01-18T01:33:49.243Z,97153.44
2023-01-18T01:36:20.914Z,97161.16
2023-01-18T01:38:48.915Z,97150.13
2023-01-18T01:41:33.462Z,97091.25
2023-01-18T01:44:24.608Z,97135.91
2023-01-18T01:47:26.098Z,97134.47
2023-01-18T01:50:02.521Z,97130.50
2023-01-18T01:52:37.044Z,97122.00
2023-01-18T01:55:21.432Z,97088.78
2023-01-18T01:58:15.524Z,97080.22
2023-01-18T02:00:45.528Z,96906.72
2023-01-18T02:03:19.919Z,97078.47
2023-01-18T02:06:06.670Z,97060.56
2023-01-18T02:08:34.979Z,97050.06
2023-01-18T02:11:02.927Z,96994.16
2023-01-18T02:13:30.966Z,97050.25
2023-01-18T02:16:36.891Z,97031.00
2023-01-18T02:19:17.616Z,97027.53
2023-01-18T02:21:56.640Z,96994.50
2023-01-18T02:24:52.032Z,97013.44
2023-01-18T02:27:47.142Z,97012.78
2023-01-18T02:30:35.953Z,97024.44
2023-01-18T02:33:25.143Z,96960.50
2023-01-18T02:35:57.516Z,96995.84
2023-01-18T02:38:41.727Z,97010.16
2023-01-18T02:41:45.964Z,97006.41
2023-01-18T02:44:36.821Z,96973.34
2023-01-18T02:47:06.965Z,96863.69
2023-01-18T02:49:35.234Z,96905.81
2023-01-18T02:52:06.351Z,96976.84
2023-01-18T02:54:40.183Z,96962.19
2023-01-18T02:57:15.789Z,96979.28
2023-01-18T02:59:53.320Z,96955.00
2023-01-18T03:02:24.900Z,96951.53
2023-01-18T03:04:55.085Z,96955.16
2023-01-18T03:07:59.168Z,96944.66
2023-01-18T03:10:31.788Z,96939.34
2023-01-18T03:13:31.201Z,96929.19
2023-01-18T03:16:14.892Z,96899.63
2023-01-18T03:19:28.700Z,96879.56
2023-01-18T03:21:57.619Z,96908.84
2023-01-18T03:24:29.688Z,96881.75
2023-01-18T03:27:19.565Z,96820.81
2023-01-18T03:30:06.248Z,96883.41
2023-01-18T03:32:54.505Z,96877.00
2023-01-18T03:35:28.457Z,96859.09
2023-01-18T03:37:59.079Z,96861.59
2023-01-18T03:40:30.458Z,96823.47
2023-01-18T03:43:15.260Z,96866.66
2023-01-18T03:45:46.052Z,96821.00
2023-01-18T03:48:15.243Z,96772.75
2023-01-18T03:51:12.056Z,96854.69
2023-01-18T03:54:16.989Z,96853.03
2023-01-18T03:57:15.596Z,96857.31
2023-01-18T03:59:43.891Z,96773.28
2023-01-18T04:02:12.135Z,96811.00
2023-01-18T04:04:42.113Z,96779.84
2023-01-18T04:07:10.706Z,96769.34
2023-01-18T04:09:38.802Z,96815.28
2023-01-18T04:12:07.412Z,96827.56
2023-01-18T04:14:35.774Z,96816.28
2023-01-18T04:17:03.879Z,96767.69
2023-01-18T04:19:32.436Z,96763.91
2023-01-18T04:22:00.796Z,96803.63
2023-01-18T04:24:29.747Z,96804.78
2023-01-18T04:26:57.893Z,96793.28
2023-01-18T04:29:26.683Z,96791.81
2023-01-18T04:31:55.133Z,96789.50
2023-01-18T04:34:24.094Z,96810.19
2023-01-18T04:36:53.653Z,96812.31
2023-01-18T04:39:21.844Z,96806.91
2023-01-18T04:41:50.029Z,96804.94
2023-01-18T04:44:18.244Z,96816.59
2023-01-18T04:46:47.765Z,96794.75
2023-01-18T04:49:18.024Z,96791.00
2023-01-18T04:51:47.656Z,96805.09
2023-01-18T04:54:18.937Z,96773.56
2023-01-18T04:56:47.026Z,96728.97
2023-01-18T04:59:16.753Z,96730.13
2023-01-18T05:01:45.687Z,96779.16
2023-01-18T05:04:13.586Z,96771.09
2023-01-18T05:06:42.890Z,96776.84
2023-01-18T05:09:12.683Z,96773.38
2023-01-18T05:11:42.099Z,96774.53
2023-01-18T05:14:11.502Z,96764.72
2023-01-18T05:16:39.878Z,96713.03
2023-01-18T05:19:08.271Z,96753.16
2023-01-18T05:21:36.468Z,96744.50
2023-01-18T05:24:04.763Z,96747.13
2023-01-18T05:26:32.885Z,96739.09
2023-01-18T05:29:00.976Z,96742.00
2023-01-18T05:31:29.269Z,96732.47
2023-01-18T05:33:57.824Z,96697.91
2023-01-18T05:36:26.341Z,96727.56
2023-01-18T05:38:55.351Z,96737.41
2023-01-18T05:41:23.601Z,96722.44
2023-01-18T05:43:51.633Z,96710.84
2023-01-18T05:46:19.868Z,96667.03
2023-01-18T05:48:47.752Z,96713.38
2023-01-18T05:51:15.919Z,96640.63
2023-01-18T05:53:43.960Z,96609.66
2023-01-18T05:56:12.056Z,96717.47
2023-01-18T05:58:40.545Z,96717.47
2023-01-18T06:01:08.946Z,96686.31
2023-01-18T06:03:37.327Z,96689.75
2023-01-18T06:06:05.947Z,96712.34
2023-01-18T06:08:35.127Z,96736.78
2023-01-18T06:11:04.584Z,96685.31
2023-01-18T06:13:33.547Z,96668.25
2023-01-18T06:16:02.721Z,96721.97
2023-01-18T06:18:33.047Z,96718.25
2023-01-18T06:21:03.878Z,96702.69
2023-01-18T06:23:32.260Z,96708.75
2023-01-18T06:26:00.369Z,96670.56
2023-01-18T06:28:30.624Z,96714.13
2023-01-18T06:31:00.524Z,96702.78
2023-01-18T06:33:29.038Z,96692.38
2023-01-18T06:35:57.114Z,96692.25
2023-01-18T06:38:25.143Z,96700.44
2023-01-18T06:40:53.362Z,96710.78
2023-01-18T06:43:21.821Z,96701.72
2023-01-18T06:45:57.625Z,96704.81
2023-01-18T06:48:26.680Z,96646.16
2023-01-18T06:50:58.699Z,96679.94
2023-01-18T06:53:27.047Z,96701.59
2023-01-18T06:56:02.189Z,96652.63
2023-01-18T06:58:32.947Z,96709.16
2023-01-18T07:01:01.472Z,96705.63
2023-01-18T07:03:31.310Z,96699.78
2023-01-18T07:06:03.515Z,96697.50
2023-01-18T07:08:32.806Z,96710.84
2023-01-18T07:11:09.998Z,96718.13
2023-01-18T07:13:44.692Z,96721.72
2023-01-18T07:16:17.617Z,96721.25
2023-01-18T07:18:48.611Z,96706.53
2023-01-18T07:21:19.406Z,96725.13
2023-01-18T07:23:47.802Z,96731.09
2023-01-18T07:26:17.841Z,96731.50
2023-01-18T07:28:47.724Z,96727.06
2023-01-18T07:31:17.588Z,96737.16
2023-01-18T07:33:46.234Z,96747.22
2023-01-18T07:36:14.604Z,96706.22
2023-01-18T07:38:42.981Z,96745.25
2023-01-18T07:41:15.523Z,96745.91
2023-01-18T07:43:46.327Z,96725.50
2023-01-18T07:46:20.805Z,96736.84
2023-01-18T07:48:49.860Z,96694.25
2023-01-18T07:51:22.396Z,96576.06
2023-01-18T07:53:55.311Z,96695.06
2023-01-18T07:56:25.390Z,96739.59
2023-01-18T07:58:54.124Z,96748.94
2023-01-18T08:01:23.794Z,96744.94
2023-01-18T08:03:54.842Z,96701.41
2023-01-18T08:06:25.782Z,96715.31
2023-01-18T08:08:57.528Z,96747.53
2023-01-18T08:11:26.143Z,96748.53
2023-01-18T08:13:54.523Z,96755.56
2023-01-18T08:16:24.707Z,96760.13
2023-01-18T08:18:52.927Z,96765.84
2023-01-18T08:21:20.973Z,96756.31
2023-01-18T08:23:49.416Z,96757.88
2023-01-18T08:26:18.201Z,96745.97
2023-01-18T08:28:46.680Z,96752.50
2023-01-18T08:31:21.796Z,96753.78
2023-01-18T08:33:51.161Z,96712.13
2023-01-18T08:36:25.468Z,96763.84
2023-01-18T08:38:57.223Z,96760.28
2023-01-18T08:41:31.087Z,96769.13
2023-01-18T08:43:59.901Z,96774.84
2023-01-18T08:46:28.626Z,96766.38
2023-01-18T08:48:59.631Z,96765.56
2023-01-18T08:51:28.160Z,96742.88
2023-01-18T08:53:57.578Z,96782.47
2023-01-18T08:56:27.305Z,96732.53
2023-01-18T08:58:56.063Z,96781.50
2023-01-18T09:01:24.722Z,96743.78
2023-01-18T09:03:58.826Z,96781.41
2023-01-18T09:06:32.443Z,96773.59
2023-01-18T09:09:01.786Z,96789.44
2023-01-18T09:11:30.177Z,96771.50
2023-01-18T09:14:01.544Z,96800.28
2023-01-18T09:16:31.399Z,96810.00
2023-01-18T09:19:00.145Z,96817.25
2023-01-18T09:21:28.874Z,96824.53
2023-01-18T09:23:58.450Z,96778.22
2023-01-18T09:26:28.024Z,96836.75
2023-01-18T09:28:56.440Z,96839.47
2023-01-18T09:31:27.989Z,96820.44
2023-01-18T09:34:09.597Z,96791.88
2023-01-18T09:36:51.213Z,96786.03
2023-01-18T09:39:22.422Z,96828.56
2023-01-18T09:42:01.541Z,96784.44
2023-01-18T09:44:39.098Z,96805.09
2023-01-18T09:47:19.149Z,96801.94
2023-01-18T09:49:58.899Z,96739.81
2023-01-18T09:52:46.577Z,96781.16
2023-01-18T09:55:27.149Z,96782.25
2023-01-18T09:58:44.445Z,96769.59
2023-01-18T10:01:20.398Z,96691.13
2023-01-18T10:04:10.381Z,96774.06
2023-01-18T10:06:55.608Z,96722.75
2023-01-18T10:10:05.095Z,96705.00
2023-01-18T10:12:53.961Z,96715.34
2023-01-18T10:15:32.128Z,96695.97
2023-01-18T10:18:00.933Z,96734.69
2023-01-18T10:20:58.146Z,96695.28
2023-01-18T10:23:46.762Z,96682.06
2023-01-18T10:26:29.674Z,96704.72
2023-01-18T10:29:43.830Z,96717.47
2023-01-18T10:32:20.943Z,96708.53
2023-01-18T10:34:52.130Z,96703.50
2023-01-18T10:37:46.016Z,96638.16
2023-01-18T10:40:15.868Z,96690.94
2023-01-18T10:42:51.860Z,96688.03
2023-01-18T10:45:26.525Z,96669.25
2023-01-18T10:47:57.730Z,96654.53
2023-01-18T10:50:40.085Z,96671.56
2023-01-18T10:53:25.338Z,96678.06
2023-01-18T10:56:18.539Z,96672.63
2023-01-18T10:59:00.679Z,96673.97
2023-01-18T11:04:34.409Z,96674.28
2023-01-18T11:07:05.147Z,96663.69
2023-01-18T11:09:43.965Z,96628.09
2023-01-18T11:12:42.864Z,96625.34
2023-01-18T11:15:14.546Z,96666.38
2023-01-18T11:17:56.305Z,96664.59
2023-01-18T11:20:31.440Z,96604.53
2023-01-18T11:23:03.602Z,96661.81
2023-01-18T11:25:59.593Z,96677.47
2023-01-18T11:28:48.640Z,96636.66
2023-01-18T11:31:22.551Z,96637.81
2023-01-18T11:34:02.065Z,96683.69
2023-01-18T11:36:44.000Z,96632.81
2023-01-18T11:39:36.217Z,96698.56
2023-01-18T11:42:25.316Z,96646.47
2023-01-18T11:45:25.207Z,96687.56
2023-01-18T11:48:30.268Z,96697.16
2023-01-18T11:51:17.599Z,96687.50
2023-01-18T11:54:27.903Z,96671.34
2023-01-18T11:57:00.203Z,96690.50
2023-01-18T11:59:39.879Z,96546.84
2023-01-18T12:02:39.310Z,96700.78
2023-01-18T12:05:37.983Z,96693.72
2023-01-18T12:08:38.601Z,96674.41
2023-01-18T12:12:19.465Z,96690.13
2023-01-18T12:15:25.163Z,96701.91
2023-01-18T12:18:12.476Z,96714.22
2023-01-18T12:21:29.688Z,96688.78
2023-01-18T12:24:18.153Z,96662.31
2023-01-18T12:27:08.807Z,96695.59
2023-01-18T12:29:52.069Z,96708.56
2023-01-18T12:33:42.400Z,96720.94
2023-01-18T12:36:24.903Z,96710.63
2023-01-18T12:38:57.696Z,96702.41
2023-01-18T12:42:08.237Z,96721.91
2023-01-18T12:44:55.780Z,96731.06
2023-01-18T12:47:41.112Z,96744.38
2023-01-18T12:50:35.021Z,96752.13
2023-01-18T12:53:47.528Z,96760.63
2023-01-18T12:56:27.859Z,96732.03
2023-01-18T12:59:08.858Z,96752.13
2023-01-18T13:01:52.199Z,96792.88
2023-01-18T13:04:35.182Z,96705.31
2023-01-18T13:07:13.183Z,96797.38
2023-01-18T13:09:51.337Z,96811.81
2023-01-18T13:12:20.590Z,96806.25
2023-01-18T13:15:28.048Z,96830.69
2023-01-18T13:18:35.185Z,96814.56
2023-01-18T13:21:42.597Z,96846.50
2023-01-18T13:24:42.263Z,96854.47
2023-01-18T13:27:26.028Z,96787.38
2023-01-18T13:29:54.768Z,96701.50
2023-01-18T13:32:33.751Z,96673.69
2023-01-18T13:35:21.804Z,96772.00
2023-01-18T13:38:10.126Z,96860.53
2023-01-18T13:40:44.739Z,96822.97
2023-01-18T13:43:38.047Z,96886.47
2023-01-18T13:46:10.281Z,96893.25
2023-01-18T13:49:37.084Z,96897.34
2023-01-18T13:52:42.552Z,96908.94
2023-01-18T13:55:32.270Z,96912.47
2023-01-18T13:58:01.376Z,96905.88
2023-01-18T14:00:31.771Z,96881.72
2023-01-18T14:03:16.244Z,96931.47
2023-01-18T14:05:47.359Z,96919.50
2023-01-18T14:08:23.718Z,96934.75
2023-01-18T14:11:00.879Z,96898.22
2023-01-18T14:13:55.113Z,96967.38
2023-01-18T14:16:37.036Z,96982.56
2023-01-18T14:19:17.641Z,96952.75
2023-01-18T14:22:34.257Z,96996.28
2023-01-18T14:25:18.639Z,96997.09
2023-01-18T14:28:04.844Z,97014.56
2023-01-18T14:30:38.372Z,97022.31
2023-01-18T14:33:18.170Z,97037.13
2023-01-18T14:35:56.529Z,97007.41
2023-01-18T14:38:26.009Z,97041.44
2023-01-18T14:40:59.155Z,97038.16
2023-01-18T14:43:43.036Z,97055.09
2023-01-18T14:46:27.086Z,97061.03
2023-01-18T14:48:59.317Z,97051.31
2023-01-18T14:51:31.019Z,97063.69
2023-01-18T14:54:03.037Z,97009.75
2023-01-18T14:56:40.471Z,97075.34
2023-01-18T14:59:28.048Z,97103.13
2023-01-18T15:02:16.488Z,97058.75
2023-01-18T15:04:46.698Z,97098.38
2023-01-18T15:07:31.015Z,97065.97
2023-01-18T15:10:00.809Z,97131.44
2023-01-18T15:12:33.838Z,97115.13
2023-01-18T15:15:10.290Z,97161.66
2023-01-18T15:17:39.097Z,97153.59
2023-01-18T15:20:14.823Z,97161.47
2023-01-18T15:22:43.805Z,97170.78
2023-01-18T15:25:28.147Z,97007.94
2023-01-18T15:28:14.937Z,97154.75
2023-01-18T15:30:57.042Z,97166.41
2023-01-18T15:33:27.935Z,97195.34
2023-01-18T15:36:04.278Z,97174.66
2023-01-18T15:38:33.602Z,97226.00
2023-01-18T15:41:12.314Z,97048.91
2023-01-18T15:43:46.430Z,97205.19
2023-01-18T15:46:17.525Z,97206.28
2023-01-18T15:48:57.561Z,97198.41
2023-01-18T15:51:44.929Z,97257.53
2023-01-18T15:54:22.919Z,97247.28
2023-01-18T15:56:52.580Z,97222.72
2023-01-18T15:59:25.260Z,97257.53
2023-01-18T16:02:08.815Z,97263.66
2023-01-18T16:04:38.523Z,97262.38
2023-01-18T16:07:39.644Z,97266.25
2023-01-18T16:10:30.641Z,97275.94
2023-01-18T16:13:21.950Z,97283.34
2023-01-18T16:16:20.284Z,97294.66
2023-01-18T16:19:20.646Z,97329.59
2023-01-18T16:22:02.821Z,97268.13
2023-01-18T16:24:46.578Z,97318.41
2023-01-18T16:27:22.306Z,97326.97
2023-01-18T16:29:52.831Z,97343.75
2023-01-18T16:32:30.061Z,97339.50
2023-01-18T16:35:11.049Z,97350.44
2023-01-18T16:37:44.854Z,97353.63
2023-01-18T16:40:23.770Z,97364.31
2023-01-18T16:43:19.991Z,97309.44
2023-01-18T16:45:54.795Z,97375.84
2023-01-18T16:48:27.937Z,97373.84
2023-01-18T16:50:59.804Z,97326.81
2023-01-18T16:53:29.539Z,97382.50
2023-01-18T16:55:57.823Z,97360.63
2023-01-18T16:58:26.728Z,97375.16
2023-01-18T17:01:11.705Z,97396.66
2023-01-18T17:03:48.452Z,97421.28
2023-01-18T17:06:23.633Z,97425.94
2023-01-18T17:08:51.611Z,97401.91
2023-01-18T17:11:19.904Z,97417.56
2023-01-18T17:13:49.561Z,97283.91
2023-01-18T17:16:19.749Z,97424.38
2023-01-18T17:18:48.398Z,97420.72
2023-01-18T17:21:17.592Z,97435.16
2023-01-18T17:23:45.996Z,97418.19
2023-01-18T17:26:18.014Z,97415.78
2023-01-18T17:28:46.412Z,97437.97
2023-01-18T17:31:14.632Z,97406.94
2023-01-18T17:33:44.359Z,97456.38
2023-01-18T17:36:13.612Z,97471.28
2023-01-18T17:38:42.015Z,97439.31
2023-01-18T17:41:27.758Z,97424.56
2023-01-18T17:43:56.835Z,97495.63
2023-01-18T17:46:25.730Z,97503.28
2023-01-18T17:48:53.794Z,97517.34
2023-01-18T17:51:22.285Z,97529.28
2023-01-18T17:53:50.941Z,97540.50
2023-01-18T17:56:19.734Z,97490.25
2023-01-18T17:58:49.780Z,97518.34
2023-01-18T18:01:19.373Z,97558.44
2023-01-18T18:03:50.800Z,97558.59
2023-01-18T18:06:30.967Z,97532.34
2023-01-18T18:09:01.308Z,97582.22
2023-01-18T18:11:30.150Z,97590.09
2023-01-18T18:13:59.373Z,97537.06
2023-01-18T18:16:28.837Z,97480.25
2023-01-18T18:18:58.334Z,97600.63
2023-01-18T18:21:27.447Z,97552.00
2023-01-18T18:23:55.865Z,97608.00
2023-01-18T18:26:24.064Z,97619.94
2023-01-18T18:28:52.556Z,97620.69
2023-01-18T18:31:21.796Z,97612.72
2023-01-18T18:33:50.979Z,97626.56
2023-01-18T18:36:19.631Z,97638.88
2023-01-18T18:38:47.997Z,97553.59
2023-01-18T18:41:16.388Z,97565.63
2023-01-18T18:43:44.751Z,97641.03
2023-01-18T18:46:14.096Z,97653.41
2023-01-18T18:48:43.071Z,97535.38
2023-01-18T18:51:11.323Z,97602.94
2023-01-18T18:53:40.103Z,97616.56
2023-01-18T18:56:12.646Z,97671.19
2023-01-18T18:58:41.995Z,97626.38
2023-01-18T19:01:26.975Z,97677.16
2023-01-18T19:03:56.715Z,97620.75
2023-01-18T19:06:27.431Z,97625.69
2023-01-18T19:08:56.233Z,97646.69
2023-01-18T19:11:24.776Z,97633.50
2023-01-18T19:13:55.897Z,97696.81
2023-01-18T19:16:24.630Z,97685.34
2023-01-18T19:18:53.126Z,97699.84
2023-01-18T19:21:21.331Z,97701.72
2023-01-18T19:23:49.974Z,97704.13
2023-01-18T19:26:18.386Z,97714.44
2023-01-18T19:28:47.656Z,97703.28
2023-01-18T19:31:17.029Z,97736.81
2023-01-18T19:33:45.599Z,97705.50
2023-01-18T19:36:16.046Z,97743.53
2023-01-18T19:38:52.702Z,97738.59
2023-01-18T19:41:27.975Z,97750.75
2023-01-18T19:43:57.378Z,97744.81
2023-01-18T19:46:25.781Z,97744.03
2023-01-18T19:49:00.334Z,97722.81
2023-01-18T19:51:28.918Z,97732.91
2023-01-18T19:53:58.080Z,97714.25
2023-01-18T19:56:28.451Z,97761.19
2023-01-18T19:58:57.803Z,97765.91
2023-01-18T20:01:36.878Z,97769.78
2023-01-18T20:04:07.393Z,97778.63
2023-01-18T20:06:40.336Z,97747.59
2023-01-18T20:09:19.103Z,97766.81
2023-01-18T20:11:49.776Z,97805.91
2023-01-18T20:14:19.676Z,97817.22
2023-01-18T20:16:48.575Z,97768.69
2023-01-18T20:19:17.996Z,97802.22
2023-01-18T20:21:46.589Z,97780.44
2023-01-18T20:24:14.813Z,97785.44
2023-01-18T20:26:43.628Z,97711.91
2023-01-18T20:29:11.799Z,97846.66
2023-01-18T20:31:41.091Z,97828.38
2023-01-18T20:34:11.222Z,97805.44
2023-01-18T20:36:39.552Z,97811.03
2023-01-18T20:39:07.772Z,97876.66
2023-01-18T20:41:36.634Z,97876.50
2023-01-18T20:44:05.079Z,97880.28
2023-01-18T20:46:34.153Z,97892.59
2023-01-18T20:49:03.957Z,97888.81
2023-01-18T20:51:33.540Z,97872.69
2023-01-18T20:54:02.420Z,97896.00
2023-01-18T20:56:32.613Z,97897.44
2023-01-18T20:59:00.956Z,97917.75
2023-01-18T21:01:32.914Z,97869.97
2023-01-18T21:04:04.717Z,97923.31
2023-01-18T21:06:33.709Z,97926.44
2023-01-18T21:09:02.447Z,97928.50
2023-01-18T21:11:32.478Z,97903.81
2023-01-18T21:14:00.974Z,97931.00
2023-01-18T21:16:30.440Z,97893.81
2023-01-18T21:18:59.634Z,97932.16
2023-01-18T21:21:29.501Z,97927.66
2023-01-18T21:23:58.594Z,97895.31
2023-01-18T21:26:28.171Z,97908.84
2023-01-18T21:28:57.279Z,97932.69
2023-01-18T21:31:26.543Z,97922.94
2023-01-18T21:33:56.046Z,97912.22
2023-01-18T21:36:24.953Z,97893.38
2023-01-18T21:38:53.763Z,97914.25
2023-01-18T21:41:42.423Z,97913.56
2023-01-18T21:44:32.541Z,97879.28
2023-01-18T21:47:02.065Z,97871.16
2023-01-18T21:52:57.419Z,97941.28
2023-01-18T21:55:25.765Z,97917.81
2023-01-18T21:58:13.000Z,97909.28
2023-01-18T22:00:42.550Z,97950.47
2023-01-18T22:03:13.709Z,97935.69
2023-01-18T22:05:42.180Z,97952.75
2023-01-18T22:08:12.272Z,97964.09
2023-01-18T22:10:40.722Z,97977.66
2023-01-18T22:13:09.177Z,97989.56
2023-01-18T22:15:37.667Z,97939.78
2023-01-18T22:18:06.471Z,97998.56
2023-01-18T22:20:35.460Z,98002.56
2023-01-18T22:23:03.811Z,97997.16
2023-01-18T22:25:32.232Z,97994.53
2023-01-18T22:28:01.508Z,98001.19
2023-01-18T22:30:30.103Z,97957.47
2023-01-18T22:32:58.684Z,98008.69
2023-01-18T22:35:27.042Z,98012.00
2023-01-18T22:37:56.179Z,97995.56
2023-01-18T22:40:24.636Z,97969.13
2023-01-18T22:42:52.900Z,97984.06
2023-01-18T22:45:21.341Z,98043.56
2023-01-18T22:47:49.621Z,98041.63
2023-01-18T22:50:18.059Z,98039.69
2023-01-18T22:52:49.153Z,98039.56
2023-01-18T22:55:20.086Z,97988.22
2023-01-18T22:57:48.226Z,98031.41
2023-01-18T23:00:18.503Z,98036.94
2023-01-18T23:02:47.127Z,98034.41
2023-01-18T23:05:15.529Z,98035.25
2023-01-18T23:07:43.720Z,98052.16
2023-01-18T23:10:12.547Z,98052.09
2023-01-18T23:12:40.736Z,98053.31
2023-01-18T23:15:31.423Z,98064.41
2023-01-18T23:18:00.440Z,98050.81
2023-01-18T23:20:28.886Z,98072.94
2023-01-18T23:22:57.505Z,98070.88
2023-01-18T23:25:25.720Z,97975.63
2023-01-18T23:27:53.966Z,98022.41
2023-01-18T23:30:22.299Z,98047.16
2023-01-18T23:32:50.731Z,98064.22
2023-01-18T23:35:18.946Z,98070.97
2023-01-18T23:37:47.267Z,98026.69
2023-01-18T23:40:34.405Z,98073.88
2023-01-18T23:43:21.184Z,98024.59
2023-01-18T23:46:10.230Z,98066.69
2023-01-18T23:48:57.395Z,98072.72
2023-01-18T23:51:44.200Z,98078.19
2023-01-18T23:54:18.829Z,98076.25
2023-01-18T23:56:48.101Z,98113.25
2023-01-18T23:59:16.229Z,98113.91
